Time;durP1;ratioP1;P1;durP2;ratioP2;P2;SDS_P1;SDS_P2;PMS_P1;PMS_P2;Temp;Humidity;BMP_temperature;BMP_pressure;BME280_temperature;BME280_humidity;BME280_pressure;Samples;Min_cycle;Max_cycle;Signal;HPM_P1;HPM_P2
2023/12/29 00:02:08;;;;;;;1.08;0.38;;;;;;;;;;5058595;28;20053;-90
2023/12/29 00:04:36;;;;;;;0.30;0.30;;;;;;;;;;5061187;28;20098;-89
2023/12/29 00:07:03;;;;;;;0.30;0.30;;;;;;;;;;5045625;28;20087;-91
2023/12/29 00:09:37;;;;;;;0.40;0.40;;;;;;;;;;5042895;28;20128;-89
2023/12/29 00:12:05;;;;;;;0.52;0.30;;;;;;;;;;5058244;28;20049;-90
2023/12/29 00:14:33;;;;;;;4.85;0.40;;;;;;;;;;5060690;28;20119;-91
2023/12/29 00:17:00;;;;;;;0.40;0.35;;;;;;;;;;5044946;28;20049;-91
2023/12/29 00:19:28;;;;;;;0.40;0.40;;;;;;;;;;5025357;28;20066;-90
2023/12/29 00:21:55;;;;;;;0.22;0.22;;;;;;;;;;5057862;28;20049;-91
2023/12/29 00:24:22;;;;;;;0.30;0.30;;;;;;;;;;5058977;28;20057;-91
2023/12/29 00:26:50;;;;;;;0.68;0.30;;;;;;;;;;5044756;28;20554;-91
2023/12/29 00:29:17;;;;;;;0.50;0.40;;;;;;;;;;5044099;28;20056;-91
2023/12/29 00:31:44;;;;;;;0.40;0.30;;;;;;;;;;5057394;28;20056;-90
2023/12/29 00:34:12;;;;;;;0.30;0.30;;;;;;;;;;5057157;28;20054;-89
2023/12/29 00:36:39;;;;;;;0.57;0.50;;;;;;;;;;5048986;28;20053;-90
2023/12/29 00:39:06;;;;;;;0.30;0.30;;;;;;;;;;5057660;28;20049;-89
2023/12/29 00:41:33;;;;;;;0.20;0.20;;;;;;;;;;5060635;28;20087;-91
2023/12/29 00:44:01;;;;;;;0.40;0.40;;;;;;;;;;5044329;28;20045;-90
2023/12/29 00:46:28;;;;;;;0.38;0.30;;;;;;;;;;5042055;28;20114;-90
2023/12/29 00:48:56;;;;;;;0.22;0.22;;;;;;;;;;5058182;28;20453;-90
2023/12/29 00:51:24;;;;;;;0.40;0.40;;;;;;;;;;5068687;28;20080;-89
2023/12/29 00:53:51;;;;;;;0.40;0.40;;;;;;;;;;5044838;28;20091;-86
2023/12/29 00:56:18;;;;;;;0.22;0.22;;;;;;;;;;5043711;28;20045;-93
2023/12/29 00:58:46;;;;;;;0.28;0.28;;;;;;;;;;5057181;28;20056;-91
2023/12/29 01:01:13;;;;;;;1.35;0.30;;;;;;;;;;5057380;28;20061;-89
2023/12/29 01:03:40;;;;;;;0.60;0.30;;;;;;;;;;5043907;28;20049;-92
2023/12/29 01:06:09;;;;;;;0.90;0.40;;;;;;;;;;5044408;28;20048;-91
2023/12/29 01:08:36;;;;;;;0.30;0.30;;;;;;;;;;5040607;28;20049;-88
2023/12/29 01:11:03;;;;;;;0.65;0.47;;;;;;;;;;5057097;28;20107;-87
2023/12/29 01:13:34;;;;;;;2.35;0.32;;;;;;;;;;5059319;28;20073;-88
2023/12/29 01:16:01;;;;;;;0.30;0.30;;;;;;;;;;5044054;28;20501;-86
2023/12/29 01:18:28;;;;;;;0.40;0.20;;;;;;;;;;5041514;28;20449;-93
2023/12/29 01:20:56;;;;;;;0.40;0.38;;;;;;;;;;5056685;28;20049;-91
2023/12/29 01:23:23;;;;;;;0.30;0.30;;;;;;;;;;5058166;28;20042;-89
2023/12/29 01:25:50;;;;;;;0.68;0.30;;;;;;;;;;5043857;28;20053;-91
2023/12/29 01:28:18;;;;;;;0.30;0.30;;;;;;;;;;5043017;28;20128;-91
2023/12/29 01:30:45;;;;;;;0.40;0.40;;;;;;;;;;5057218;28;20048;-88
2023/12/29 01:33:12;;;;;;;0.30;0.30;;;;;;;;;;5057167;28;20053;-88
2023/12/29 01:35:40;;;;;;;0.32;0.32;;;;;;;;;;5057234;28;20050;-89
2023/12/29 01:38:07;;;;;;;1.25;0.73;;;;;;;;;;5040356;28;20055;-88
2023/12/29 01:40:42;;;;;;;0.50;0.50;;;;;;;;;;5042632;28;20053;-90
2023/12/29 01:43:10;;;;;;;1.50;0.50;;;;;;;;;;5043810;28;20110;-88
2023/12/29 01:45:37;;;;;;;0.65;0.60;;;;;;;;;;5040345;28;20064;-90
2023/12/29 01:48:19;;;;;;;0.45;0.45;;;;;;;;;;5058260;28;20136;-92
2023/12/29 01:50:46;;;;;;;0.40;0.40;;;;;;;;;;5047472;28;20139;-91
2023/12/29 01:53:13;;;;;;;1.27;0.50;;;;;;;;;;5047185;28;20453;-94
2023/12/29 01:55:42;;;;;;;0.30;0.30;;;;;;;;;;5060971;28;20107;-90
2023/12/29 01:58:09;;;;;;;0.40;0.40;;;;;;;;;;5060659;28;20406;-91
2023/12/29 02:00:37;;;;;;;0.52;0.52;;;;;;;;;;5057067;28;20062;-90
2023/12/29 02:03:04;;;;;;;0.40;0.40;;;;;;;;;;5024240;28;20462;-90
2023/12/29 02:05:34;;;;;;;0.50;0.50;;;;;;;;;;5046896;28;20482;-90
2023/12/29 02:08:02;;;;;;;0.40;0.40;;;;;;;;;;5063006;28;20076;-91
2023/12/29 02:10:32;;;;;;;0.40;0.40;;;;;;;;;;5062787;28;20049;-90
2023/12/29 02:13:00;;;;;;;0.40;0.40;;;;;;;;;;5047226;28;20497;-89
2023/12/29 02:15:27;;;;;;;0.50;0.50;;;;;;;;;;5045203;28;20060;-90
2023/12/29 02:18:00;;;;;;;0.60;0.60;;;;;;;;;;5059403;28;20057;-90
2023/12/29 02:20:28;;;;;;;2.58;0.50;;;;;;;;;;5059910;28;20053;-89
2023/12/29 02:22:55;;;;;;;0.50;0.50;;;;;;;;;;5043626;28;20053;-89
2023/12/29 02:25:22;;;;;;;0.50;0.50;;;;;;;;;;5046069;28;20045;-90
2023/12/29 02:27:54;;;;;;;1.02;0.82;;;;;;;;;;5033994;28;20133;-90
2023/12/29 02:30:28;;;;;;;0.60;0.60;;;;;;;;;;5044940;28;20045;-88
2023/12/29 02:32:55;;;;;;;;;;;;;;;;;;5047218;28;20079;-90
2023/12/29 02:35:25;;;;;;;0.60;0.60;;;;;;;;;;5045507;28;19928;-90
2023/12/29 02:37:53;;;;;;;1.08;0.70;;;;;;;;;;5060249;28;20056;-91
2023/12/29 02:40:21;;;;;;;0.57;0.57;;;;;;;;;;5060871;28;20099;-90
2023/12/29 02:42:49;;;;;;;0.80;0.60;;;;;;;;;;5046455;28;20052;-90
2023/12/29 02:45:16;;;;;;;0.80;0.80;;;;;;;;;;5038238;28;20049;-90
2023/12/29 02:47:44;;;;;;;1.08;0.70;;;;;;;;;;5046729;28;20053;-89
2023/12/29 02:50:12;;;;;;;2.53;0.63;;;;;;;;;;5046671;28;20144;-91
2023/12/29 02:52:39;;;;;;;1.13;0.82;;;;;;;;;;5051563;28;20060;-91
2023/12/29 02:55:07;;;;;;;0.63;0.63;;;;;;;;;;5042662;28;20092;-89
2023/12/29 02:57:34;;;;;;;1.05;0.80;;;;;;;;;;5045612;28;20045;-88
2023/12/29 03:00:02;;;;;;;1.98;0.90;;;;;;;;;;5045731;28;20499;-89
2023/12/29 03:02:31;;;;;;;1.10;0.95;;;;;;;;;;5043526;28;20110;-90
2023/12/29 03:04:58;;;;;;;0.80;0.80;;;;;;;;;;5042669;28;20057;-90
2023/12/29 03:07:25;;;;;;;2.17;0.80;;;;;;;;;;5061103;28;20053;-91
2023/12/29 03:09:52;;;;;;;1.15;0.82;;;;;;;;;;5046119;28;20469;-91
2023/12/29 03:12:20;;;;;;;0.82;0.70;;;;;;;;;;5044771;28;20144;-92
2023/12/29 03:14:47;;;;;;;1.67;0.88;;;;;;;;;;5058881;28;20073;-91
2023/12/29 03:17:14;;;;;;;1.00;0.70;;;;;;;;;;5059314;28;20111;-93
2023/12/29 03:19:41;;;;;;;0.82;0.82;;;;;;;;;;5045722;28;20057;-90
2023/12/29 03:22:10;;;;;;;3.25;0.80;;;;;;;;;;5053934;28;20052;-90
2023/12/29 03:24:37;;;;;;;1.33;0.77;;;;;;;;;;5042083;28;20084;-90
2023/12/29 03:27:05;;;;;;;1.58;0.90;;;;;;;;;;5057646;28;20056;-89
2023/12/29 03:29:32;;;;;;;0.85;0.85;;;;;;;;;;5040468;28;20060;-90
2023/12/29 03:31:59;;;;;;;1.20;1.08;;;;;;;;;;5035295;28;20045;-90
2023/12/29 03:34:26;;;;;;;0.88;0.88;;;;;;;;;;5043522;28;20048;-89
2023/12/29 03:36:54;;;;;;;1.90;0.98;;;;;;;;;;5058546;28;20441;-90
2023/12/29 03:39:21;;;;;;;1.00;1.00;;;;;;;;;;5059423;28;20490;-90
2023/12/29 03:41:48;;;;;;;1.55;1.00;;;;;;;;;;5045804;28;20126;-91
2023/12/29 03:44:17;;;;;;;1.00;1.00;;;;;;;;;;5044986;28;20049;-90
2023/12/29 03:46:44;;;;;;;1.13;0.80;;;;;;;;;;5058617;28;20092;-90
2023/12/29 03:49:11;;;;;;;0.80;0.80;;;;;;;;;;5058548;28;20475;-91
2023/12/29 03:51:39;;;;;;;1.45;1.00;;;;;;;;;;5041612;28;20045;-90
2023/12/29 03:54:06;;;;;;;0.88;0.88;;;;;;;;;;5041407;28;20064;-90
2023/12/29 03:56:33;;;;;;;0.85;0.85;;;;;;;;;;5044627;28;20099;-90
2023/12/29 03:59:00;;;;;;;1.02;0.90;;;;;;;;;;5045310;28;20128;-90
2023/12/29 04:01:28;;;;;;;1.33;1.00;;;;;;;;;;5040811;28;20052;-89
2023/12/29 04:03:55;;;;;;;1.38;1.08;;;;;;;;;;5033415;28;20048;-91
2023/12/29 04:06:23;;;;;;;4.22;1.38;;;;;;;;;;5043343;28;20048;-89
2023/12/29 04:08:50;;;;;;;2.10;1.10;;;;;;;;;;5057922;28;20053;-90
2023/12/29 04:11:17;;;;;;;1.35;1.08;;;;;;;;;;5057805;28;20064;-89
2023/12/29 04:13:44;;;;;;;1.75;0.93;;;;;;;;;;5044949;28;20106;-91
2023/12/29 04:16:12;;;;;;;1.77;1.10;;;;;;;;;;5044876;28;20056;-89
2023/12/29 04:18:39;;;;;;;0.80;0.80;;;;;;;;;;5033070;28;20428;-90
2023/12/29 04:21:08;;;;;;;1.10;1.00;;;;;;;;;;5040868;28;20049;-90
2023/12/29 04:23:36;;;;;;;1.08;0.98;;;;;;;;;;5060733;28;20114;-90
2023/12/29 04:26:03;;;;;;;2.58;1.17;;;;;;;;;;5037959;28;20091;-90
2023/12/29 04:28:30;;;;;;;1.15;0.90;;;;;;;;;;5043415;28;20072;-90
2023/12/29 04:30:57;;;;;;;1.02;0.70;;;;;;;;;;5044710;28;20073;-90
2023/12/29 04:33:25;;;;;;;1.85;0.80;;;;;;;;;;5042518;28;20057;-90
2023/12/29 04:35:52;;;;;;;3.03;0.90;;;;;;;;;;5041463;28;20072;-90
2023/12/29 04:38:19;;;;;;;3.25;1.10;;;;;;;;;;5050683;28;20046;-90
2023/12/29 04:40:47;;;;;;;1.60;1.00;;;;;;;;;;5044325;28;20044;-90
2023/12/29 04:43:14;;;;;;;2.80;0.88;;;;;;;;;;5044037;28;20057;-90
2023/12/29 04:45:41;;;;;;;1.38;1.00;;;;;;;;;;5057796;28;20049;-91
2023/12/29 04:48:09;;;;;;;1.63;1.00;;;;;;;;;;5057219;28;20049;-91
2023/12/29 04:50:36;;;;;;;2.17;2.00;;;;;;;;;;5043861;28;20053;-92
2023/12/29 04:53:03;;;;;;;1.23;0.90;;;;;;;;;;5044022;28;20045;-90
2023/12/29 04:55:30;;;;;;;0.70;0.70;;;;;;;;;;5036046;28;20064;-91
2023/12/29 04:57:58;;;;;;;1.20;0.90;;;;;;;;;;5044329;28;20045;-90
2023/12/29 05:00:25;;;;;;;0.70;0.70;;;;;;;;;;5042051;28;20140;-92
2023/12/29 05:02:53;;;;;;;1.73;1.10;;;;;;;;;;5057239;28;20413;-90
2023/12/29 05:05:20;;;;;;;2.03;0.98;;;;;;;;;;5041558;28;20080;-91
2023/12/29 05:07:47;;;;;;;1.52;1.00;;;;;;;;;;5044417;28;20053;-90
2023/12/29 05:10:14;;;;;;;0.88;0.88;;;;;;;;;;5044608;28;20485;-90
2023/12/29 05:12:42;;;;;;;1.00;0.82;;;;;;;;;;5040747;28;20400;-89
2023/12/29 05:15:09;;;;;;;2.53;1.10;;;;;;;;;;5056965;28;20045;-91
2023/12/29 05:17:37;;;;;;;2.92;1.00;;;;;;;;;;5056805;28;20077;-89
2023/12/29 05:20:04;;;;;;;2.75;1.15;;;;;;;;;;5040648;28;20103;-89
2023/12/29 05:22:31;;;;;;;1.20;1.10;;;;;;;;;;5045184;28;20115;-90
2023/12/29 05:25:00;;;;;;;1.50;0.85;;;;;;;;;;5048656;28;20496;-90
2023/12/29 05:27:27;;;;;;;4.65;0.98;;;;;;;;;;5045996;28;20144;-90
2023/12/29 05:29:54;;;;;;;1.55;1.00;;;;;;;;;;5061017;28;20560;-89
2023/12/29 05:32:22;;;;;;;2.20;1.02;;;;;;;;;;5062179;28;20073;-89
2023/12/29 05:34:49;;;;;;;1.10;1.00;;;;;;;;;;5047823;28;20401;-90
2023/12/29 05:37:17;;;;;;;1.67;1.02;;;;;;;;;;5047150;28;20059;-90
2023/12/29 05:39:44;;;;;;;3.00;1.05;;;;;;;;;;5044165;28;20081;-90
2023/12/29 05:42:11;;;;;;;2.90;1.35;;;;;;;;;;5044221;28;20053;-90
2023/12/29 05:44:39;;;;;;;2.08;1.15;;;;;;;;;;5043929;28;20061;-90
2023/12/29 05:47:06;;;;;;;3.22;0.93;;;;;;;;;;5044170;28;20057;-90
2023/12/29 05:49:37;;;;;;;2.78;1.17;;;;;;;;;;5063537;28;20425;-91
2023/12/29 05:52:06;;;;;;;1.63;1.23;;;;;;;;;;5049192;28;20064;-89
2023/12/29 05:54:33;;;;;;;2.35;1.17;;;;;;;;;;5047579;28;20057;-89
2023/12/29 05:57:01;;;;;;;0.88;0.88;;;;;;;;;;5060643;28;20045;-91
2023/12/29 05:59:28;;;;;;;1.27;1.17;;;;;;;;;;5062572;28;20096;-90
2023/12/29 06:01:56;;;;;;;1.20;1.10;;;;;;;;;;5042029;28;20046;-92
2023/12/29 06:04:23;;;;;;;1.08;0.93;;;;;;;;;;5035503;28;20560;-91
2023/12/29 06:06:51;;;;;;;3.10;1.27;;;;;;;;;;5060574;28;20050;-90
2023/12/29 06:09:18;;;;;;;1.55;1.02;;;;;;;;;;5061477;28;20045;-89
2023/12/29 06:11:46;;;;;;;1.15;1.13;;;;;;;;;;5047660;28;20053;-89
2023/12/29 06:14:13;;;;;;;1.25;1.20;;;;;;;;;;5047530;28;20072;-91
2023/12/29 06:16:40;;;;;;;2.63;1.30;;;;;;;;;;5053768;28;20072;-93
2023/12/29 06:19:08;;;;;;;2.63;1.10;;;;;;;;;;5061347;28;20119;-89
2023/12/29 06:21:41;;;;;;;1.50;1.40;;;;;;;;;;5060060;28;20113;-88
2023/12/29 06:24:09;;;;;;;2.55;1.20;;;;;;;;;;5060413;28;20049;-91
2023/12/29 06:26:41;;;;;;;2.85;1.60;;;;;;;;;;5048820;28;20112;-90
2023/12/29 06:29:08;;;;;;;1.92;1.20;;;;;;;;;;5039115;28;20049;-89
2023/12/29 06:31:35;;;;;;;1.40;1.30;;;;;;;;;;5044025;28;20076;-89
2023/12/29 06:34:03;;;;;;;1.20;1.10;;;;;;;;;;5059396;28;20045;-92
2023/12/29 06:36:30;;;;;;;1.30;1.20;;;;;;;;;;5053511;28;20053;-86
2023/12/29 06:38:57;;;;;;;1.70;1.60;;;;;;;;;;5046792;28;20049;-90
2023/12/29 06:41:25;;;;;;;3.33;1.30;;;;;;;;;;5044809;28;20551;-90
2023/12/29 06:43:52;;;;;;;1.38;1.38;;;;;;;;;;5059607;28;20073;-90
2023/12/29 06:46:19;;;;;;;2.03;1.42;;;;;;;;;;5058748;28;20053;-89
2023/12/29 06:48:48;;;;;;;1.33;1.17;;;;;;;;;;5047451;28;20075;-91
2023/12/29 06:51:18;;;;;;;1.88;1.25;;;;;;;;;;5046721;28;20076;-91
2023/12/29 06:53:47;;;;;;;2.72;1.30;;;;;;;;;;5059309;28;20057;-90
2023/12/29 06:56:20;;;;;;;1.80;1.40;;;;;;;;;;5060041;28;20061;-91
2023/12/29 06:58:47;;;;;;;4.03;1.17;;;;;;;;;;5047194;28;20049;-91
2023/12/29 07:01:15;;;;;;;4.47;1.35;;;;;;;;;;5046800;28;20460;-91
2023/12/29 07:03:43;;;;;;;2.60;1.35;;;;;;;;;;5027080;28;20045;-89
2023/12/29 07:06:11;;;;;;;1.67;1.25;;;;;;;;;;5044370;28;20144;-90
2023/12/29 07:08:39;;;;;;;1.88;1.50;;;;;;;;;;5045599;28;20060;-92
2023/12/29 07:11:11;;;;;;;2.83;1.20;;;;;;;;;;5048841;28;20497;-91
2023/12/29 07:13:38;;;;;;;1.40;1.30;;;;;;;;;;5034631;28;20053;-88
2023/12/29 07:16:06;;;;;;;2.53;1.38;;;;;;;;;;5059472;28;20053;-93
2023/12/29 07:18:33;;;;;;;1.20;1.10;;;;;;;;;;5061630;28;20111;-91
2023/12/29 07:21:01;;;;;;;3.45;1.10;;;;;;;;;;5046388;28;20052;-90
2023/12/29 07:23:28;;;;;;;1.15;1.00;;;;;;;;;;5044179;28;20107;-92
2023/12/29 07:25:55;;;;;;;1.65;1.10;;;;;;;;;;5059056;28;20045;-90
2023/12/29 07:28:22;;;;;;;1.42;1.33;;;;;;;;;;5044176;28;20104;-94
2023/12/29 07:30:50;;;;;;;1.42;1.23;;;;;;;;;;5046540;28;20067;-91
2023/12/29 07:33:17;;;;;;;1.17;0.90;;;;;;;;;;5037675;28;20056;-88
2023/12/29 07:35:45;;;;;;;4.28;1.30;;;;;;;;;;5046453;28;20048;-92
2023/12/29 07:38:12;;;;;;;3.80;1.10;;;;;;;;;;5047455;28;20171;-92
2023/12/29 07:40:39;;;;;;;1.33;1.15;;;;;;;;;;5035198;28;20068;-91
2023/12/29 07:43:06;;;;;;;1.30;1.00;;;;;;;;;;5058771;28;20061;-92
2023/12/29 07:45:34;;;;;;;1.65;1.00;;;;;;;;;;5044550;28;20056;-93
2023/12/29 07:48:04;;;;;;;1.40;1.00;;;;;;;;;;5046261;28;20052;-91
2023/12/29 07:50:36;;;;;;;6.38;1.05;;;;;;;;;;5040143;28;20560;-90
2023/12/29 07:53:05;;;;;;;2.15;1.20;;;;;;;;;;5035824;28;20049;-90
2023/12/29 07:55:33;;;;;;;2.15;0.88;;;;;;;;;;5043324;28;20053;-90
2023/12/29 07:58:00;;;;;;;2.13;1.20;;;;;;;;;;5059079;28;20060;-91
2023/12/29 08:00:27;;;;;;;1.77;1.08;;;;;;;;;;5060114;28;20132;-91
2023/12/29 08:02:55;;;;;;;1.20;1.05;;;;;;;;;;5045602;28;20497;-93
2023/12/29 08:05:22;;;;;;;1.77;1.00;;;;;;;;;;5044337;28;20041;-89
2023/12/29 08:07:49;;;;;;;1.38;1.13;;;;;;;;;;5058414;28;20053;-91
2023/12/29 08:10:16;;;;;;;2.88;1.30;;;;;;;;;;5058778;28;20075;-90
2023/12/29 08:12:44;;;;;;;2.05;1.38;;;;;;;;;;5045749;28;20051;-91
2023/12/29 08:15:11;;;;;;;1.63;1.20;;;;;;;;;;5037074;28;20049;-91
2023/12/29 08:17:39;;;;;;;1.08;1.08;;;;;;;;;;5042090;28;20053;-90
2023/12/29 08:20:06;;;;;;;2.58;0.98;;;;;;;;;;5041986;28;20064;-89
2023/12/29 08:22:34;;;;;;;1.30;1.20;;;;;;;;;;5043380;28;20107;-91
2023/12/29 08:25:01;;;;;;;2.22;1.42;;;;;;;;;;5052738;28;20049;-92
2023/12/29 08:27:28;;;;;;;2.50;1.00;;;;;;;;;;5043005;28;20545;-91
2023/12/29 08:29:56;;;;;;;2.58;0.98;;;;;;;;;;5045350;28;20056;-89
2023/12/29 08:32:23;;;;;;;2.15;1.13;;;;;;;;;;5044896;28;20049;-91
2023/12/29 08:34:50;;;;;;;2.95;1.10;;;;;;;;;;5044667;28;20128;-91
2023/12/29 08:37:19;;;;;;;4.18;1.75;;;;;;;;;;5044035;28;20072;-91
2023/12/29 08:39:48;;;;;;;2.03;1.20;;;;;;;;;;5058172;28;20076;-91
2023/12/29 08:42:15;;;;;;;1.67;1.00;;;;;;;;;;5057592;28;20084;-90
2023/12/29 08:44:43;;;;;;;2.85;1.05;;;;;;;;;;5044513;28;20049;-90
2023/12/29 08:47:10;;;;;;;4.38;2.28;;;;;;;;;;5044577;28;20166;-89
2023/12/29 08:49:38;;;;;;;2.88;1.10;;;;;;;;;;5038056;28;20057;-92
2023/12/29 08:52:05;;;;;;;1.02;1.00;;;;;;;;;;5028724;28;20054;-91
2023/12/29 08:54:33;;;;;;;1.67;1.30;;;;;;;;;;5044833;28;20103;-92
2023/12/29 08:57:01;;;;;;;1.88;1.10;;;;;;;;;;5044083;28;20076;-91
2023/12/29 08:59:28;;;;;;;7.43;1.10;;;;;;;;;;5042395;28;20049;-87
2023/12/29 09:01:55;;;;;;;5.88;1.20;;;;;;;;;;5057454;28;20069;-92
2023/12/29 09:04:23;;;;;;;1.00;0.98;;;;;;;;;;5058555;28;20128;-90
2023/12/29 09:06:50;;;;;;;2.65;1.25;;;;;;;;;;5034508;28;20058;-92
2023/12/29 09:09:17;;;;;;;1.27;1.25;;;;;;;;;;5037695;28;20041;-88
2023/12/29 09:11:45;;;;;;;2.30;1.20;;;;;;;;;;5057485;28;20197;-90
2023/12/29 09:14:12;;;;;;;1.70;1.20;;;;;;;;;;5057247;28;20425;-88
2023/12/29 09:16:40;;;;;;;4.35;1.30;;;;;;;;;;5049575;28;20061;-88
2023/12/29 09:19:11;;;;;;;4.38;1.27;;;;;;;;;;5056408;28;20084;-88
2023/12/29 09:21:41;;;;;;;2.33;1.30;;;;;;;;;;5049428;28;20112;-91
2023/12/29 09:24:08;;;;;;;1.75;1.00;;;;;;;;;;5056878;28;20053;-91
2023/12/29 09:26:35;;;;;;;0.90;0.90;;;;;;;;;;5059746;28;20056;-91
2023/12/29 09:29:03;;;;;;;1.85;1.10;;;;;;;;;;5044024;28;20098;-91
2023/12/29 09:31:30;;;;;;;1.90;1.13;;;;;;;;;;5023071;28;20484;-88
2023/12/29 09:33:57;;;;;;;1.20;1.10;;;;;;;;;;5032659;28;20110;-88
2023/12/29 09:36:25;;;;;;;1.63;1.15;;;;;;;;;;5042768;28;20131;-88
2023/12/29 09:38:53;;;;;;;1.48;1.25;;;;;;;;;;5057272;28;20073;-92
2023/12/29 09:41:21;;;;;;;2.45;1.10;;;;;;;;;;5039469;28;20044;-87
2023/12/29 09:43:51;;;;;;;1.30;1.20;;;;;;;;;;5057222;28;20123;-90
2023/12/29 09:46:23;;;;;;;2.03;1.27;;;;;;;;;;5058113;28;20053;-88
2023/12/29 09:48:52;;;;;;;1.50;1.40;;;;;;;;;;5047446;28;20056;-88
2023/12/29 09:51:23;;;;;;;4.57;1.23;;;;;;;;;;5057179;28;20467;-89
2023/12/29 09:53:51;;;;;;;3.35;1.08;;;;;;;;;;5057054;28;20049;-89
2023/12/29 09:56:19;;;;;;;2.15;1.30;;;;;;;;;;5057889;28;20053;-90
2023/12/29 09:58:48;;;;;;;1.20;1.20;;;;;;;;;;5044361;28;20045;-92
2023/12/29 10:01:18;;;;;;;7.00;1.48;;;;;;;;;;5043537;28;20049;-91
2023/12/29 10:03:48;;;;;;;2.33;1.48;;;;;;;;;;5057085;28;20045;-89
2023/12/29 10:06:21;;;;;;;2.05;1.10;;;;;;;;;;5048953;28;20728;-88
2023/12/29 10:08:50;;;;;;;1.42;1.05;;;;;;;;;;5034845;28;20057;-88
2023/12/29 10:11:19;;;;;;;2.95;1.20;;;;;;;;;;5044782;28;20525;-90
2023/12/29 10:13:47;;;;;;;1.52;1.42;;;;;;;;;;5047027;28;20098;-92
2023/12/29 10:16:19;;;;;;;1.80;1.25;;;;;;;;;;5047477;28;20143;-88
2023/12/29 10:18:52;;;;;;;3.20;1.15;;;;;;;;;;5060485;28;20414;-88
2023/12/29 10:21:23;;;;;;;1.38;1.20;;;;;;;;;;5060899;28;20140;-90
2023/12/29 10:23:55;;;;;;;1.50;1.17;;;;;;;;;;5057268;28;20057;-92
2023/12/29 10:26:22;;;;;;;2.38;1.00;;;;;;;;;;5045728;28;20071;-89
2023/12/29 10:28:50;;;;;;;3.22;1.40;;;;;;;;;;5060046;28;20049;-90
2023/12/29 10:31:18;;;;;;;2.08;1.17;;;;;;;;;;5060230;28;20045;-89
2023/12/29 10:33:50;;;;;;;0.90;0.90;;;;;;;;;;5043762;28;20053;-89
2023/12/29 10:36:18;;;;;;;1.10;0.80;;;;;;;;;;5044491;28;20053;-89
2023/12/29 10:38:45;;;;;;;1.13;0.93;;;;;;;;;;5034240;28;20061;-89
2023/12/29 10:41:13;;;;;;;0.93;0.88;;;;;;;;;;5043149;28;20474;-90
2023/12/29 10:43:42;;;;;;;0.80;0.80;;;;;;;;;;5063160;28;20057;-91
2023/12/29 10:46:10;;;;;;;1.63;0.90;;;;;;;;;;5046768;28;20633;-89
2023/12/29 10:48:38;;;;;;;2.70;0.98;;;;;;;;;;5043624;28;20049;-89
2023/12/29 10:51:06;;;;;;;1.95;1.00;;;;;;;;;;5059931;28;20053;-88
2023/12/29 10:53:34;;;;;;;0.77;0.70;;;;;;;;;;5064239;28;20563;-90
2023/12/29 10:56:19;;;;;;;4.65;1.00;;;;;;;;;;5054022;28;20051;-88
2023/12/29 10:58:57;;;;;;;2.33;0.95;;;;;;;;;;5036336;28;20055;-88
2023/12/29 11:01:25;;;;;;;3.80;1.20;;;;;;;;;;5060501;28;20552;-90
2023/12/29 11:03:59;;;;;;;2.47;0.73;;;;;;;;;;5040895;28;20064;-93
2023/12/29 11:06:28;;;;;;;2.13;0.88;;;;;;;;;;5044938;28;20553;-90
2023/12/29 11:08:56;;;;;;;1.85;0.80;;;;;;;;;;5046693;28;20048;-90
2023/12/29 11:11:25;;;;;;;0.70;0.70;;;;;;;;;;5045290;28;20045;-92
2023/12/29 11:13:53;;;;;;;2.65;0.80;;;;;;;;;;5032149;28;20049;-90
2023/12/29 11:16:22;;;;;;;1.17;0.70;;;;;;;;;;5044880;28;20493;-90
2023/12/29 11:18:51;;;;;;;0.95;0.70;;;;;;;;;;5058696;28;20107;-89
2023/12/29 11:21:19;;;;;;;1.75;0.82;;;;;;;;;;5059553;28;20536;-87
2023/12/29 11:23:47;;;;;;;1.15;0.70;;;;;;;;;;5045959;28;20076;-87
2023/12/29 11:26:16;;;;;;;0.93;0.70;;;;;;;;;;5045547;28;20045;-91
2023/12/29 11:28:44;;;;;;;1.60;0.70;;;;;;;;;;5042445;28;20053;-88
2023/12/29 11:31:11;;;;;;;3.22;0.73;;;;;;;;;;5058897;28;20053;-89
2023/12/29 11:33:41;;;;;;;1.25;0.70;;;;;;;;;;5050661;28;20068;-88
2023/12/29 11:36:12;;;;;;;1.20;0.70;;;;;;;;;;5059066;28;20053;-86
2023/12/29 11:39:00;;;;;;;3.10;0.88;;;;;;;;;;5034511;28;20395;-88
2023/12/29 11:41:46;;;;;;;2.30;0.68;;;;;;;;;;5043708;28;20045;-87
2023/12/29 11:44:25;;;;;;;1.23;0.90;;;;;;;;;;5045203;28;20154;-87
2023/12/29 11:46:53;;;;;;;1.90;0.85;;;;;;;;;;5058908;28;20045;-90
2023/12/29 11:49:21;;;;;;;1.08;0.60;;;;;;;;;;5043004;28;20108;-89
2023/12/29 11:51:51;;;;;;;1.27;0.90;;;;;;;;;;5045652;28;20477;-88
2023/12/29 11:54:26;;;;;;;1.45;0.70;;;;;;;;;;5044426;28;20124;-88
2023/12/29 11:56:53;;;;;;;1.90;0.60;;;;;;;;;;5058651;28;20076;-89
2023/12/29 11:59:22;;;;;;;1.48;0.65;;;;;;;;;;5060187;28;20081;-88
2023/12/29 12:01:50;;;;;;;0.98;0.40;;;;;;;;;;5045286;28;20045;-92
2023/12/29 12:04:37;;;;;;;2.05;0.73;;;;;;;;;;5027656;28;20464;-89
2023/12/29 12:07:07;;;;;;;4.70;0.70;;;;;;;;;;5042088;28;20056;-87
2023/12/29 12:09:35;;;;;;;0.95;0.60;;;;;;;;;;5052332;28;20476;-88
2023/12/29 12:12:03;;;;;;;2.05;0.75;;;;;;;;;;5047612;28;20057;-88
2023/12/29 12:14:48;;;;;;;1.58;0.98;;;;;;;;;;5042223;28;20056;-88
2023/12/29 12:17:32;;;;;;;2.42;0.70;;;;;;;;;;5058205;28;20053;-86
2023/12/29 12:20:09;;;;;;;0.95;0.63;;;;;;;;;;5045031;28;20508;-88
2023/12/29 12:22:37;;;;;;;2.95;0.60;;;;;;;;;;5041533;28;20049;-88
2023/12/29 12:25:06;;;;;;;1.30;0.68;;;;;;;;;;5057391;28;20486;-87
2023/12/29 12:27:38;;;;;;;0.80;0.60;;;;;;;;;;5043951;28;20058;-89
2023/12/29 12:30:05;;;;;;;0.68;0.63;;;;;;;;;;5044773;28;20045;-88
2023/12/29 12:32:33;;;;;;;1.15;0.70;;;;;;;;;;5039360;28;20049;-91
2023/12/29 12:35:00;;;;;;;1.75;1.15;;;;;;;;;;5056940;28;20051;-87
2023/12/29 12:37:28;;;;;;;1.05;0.77;;;;;;;;;;5042208;28;20049;-87
2023/12/29 12:39:56;;;;;;;1.27;0.50;;;;;;;;;;5042957;28;20068;-90
2023/12/29 12:42:24;;;;;;;1.73;0.90;;;;;;;;;;5036131;28;20054;-89
2023/12/29 12:44:56;;;;;;;1.08;0.50;;;;;;;;;;5044505;28;20049;-87
2023/12/29 12:47:26;;;;;;;2.50;0.70;;;;;;;;;;5043000;28;20103;-88
2023/12/29 12:49:53;;;;;;;0.80;0.60;;;;;;;;;;5057567;28;20410;-89
2023/12/29 12:52:21;;;;;;;2.03;0.60;;;;;;;;;;5058328;28;20449;-88
2023/12/29 12:54:48;;;;;;;0.60;0.55;;;;;;;;;;5044225;28;20041;-87
2023/12/29 12:57:19;;;;;;;1.83;0.90;;;;;;;;;;5043988;28;20045;-89
2023/12/29 12:59:47;;;;;;;0.70;0.70;;;;;;;;;;5053128;28;20053;-91
2023/12/29 13:02:14;;;;;;;0.95;0.77;;;;;;;;;;5021160;28;20136;-87
2023/12/29 13:04:43;;;;;;;1.23;0.88;;;;;;;;;;5043813;28;20059;-89
2023/12/29 13:07:10;;;;;;;0.80;0.70;;;;;;;;;;5044513;28;20557;-88
2023/12/29 13:09:37;;;;;;;1.70;0.68;;;;;;;;;;5040790;28;20081;-87
2023/12/29 13:12:17;;;;;;;4.32;0.80;;;;;;;;;;5057362;28;20049;-89
2023/12/29 13:14:48;;;;;;;1.65;1.05;;;;;;;;;;5032995;28;20049;-88
2023/12/29 13:17:17;;;;;;;1.30;0.80;;;;;;;;;;5057153;28;20053;-88
2023/12/29 13:19:44;;;;;;;1.02;0.60;;;;;;;;;;5043853;28;20277;-87
2023/12/29 13:22:14;;;;;;;1.52;0.95;;;;;;;;;;5044174;28;20132;-86
2023/12/29 13:24:46;;;;;;;1.70;0.80;;;;;;;;;;5040975;28;20033;-90
2023/12/29 13:27:14;;;;;;;0.88;0.88;;;;;;;;;;5062782;28;20052;-91
2023/12/29 13:29:42;;;;;;;1.95;1.13;;;;;;;;;;5032773;28;20057;-88
2023/12/29 13:32:28;;;;;;;0.63;0.63;;;;;;;;;;5057165;28;20072;-88
2023/12/29 13:35:05;;;;;;;1.23;0.75;;;;;;;;;;5034273;28;20508;-88
2023/12/29 13:37:44;;;;;;;1.52;0.90;;;;;;;;;;5059611;28;20053;-90
2023/12/29 13:40:17;;;;;;;0.77;0.73;;;;;;;;;;5043863;28;20057;-89
2023/12/29 13:42:46;;;;;;;2.17;1.30;;;;;;;;;;5033881;28;20053;-88
2023/12/29 13:45:15;;;;;;;2.15;0.75;;;;;;;;;;5060991;28;20053;-88
2023/12/29 13:47:42;;;;;;;1.10;1.00;;;;;;;;;;5040708;28;20071;-87
2023/12/29 13:50:10;;;;;;;0.93;0.52;;;;;;;;;;5048153;28;20055;-88
2023/12/29 13:52:38;;;;;;;2.80;1.30;;;;;;;;;;5039457;28;20041;-89
2023/12/29 13:55:08;;;;;;;0.77;0.77;;;;;;;;;;5047532;28;20061;-88
2023/12/29 13:57:36;;;;;;;2.05;0.80;;;;;;;;;;5044696;28;20132;-89
2023/12/29 14:00:16;;;;;;;1.17;0.60;;;;;;;;;;5060733;28;20046;-89
2023/12/29 14:02:56;;;;;;;1.00;0.70;;;;;;;;;;5036375;28;20112;-88
2023/12/29 14:05:24;;;;;;;2.45;0.90;;;;;;;;;;5045571;28;20096;-88
2023/12/29 14:08:06;;;;;;;1.25;0.80;;;;;;;;;;5048906;28;20088;-89
2023/12/29 14:10:34;;;;;;;0.75;0.70;;;;;;;;;;5037325;28;20576;-88
2023/12/29 14:13:06;;;;;;;2.30;0.70;;;;;;;;;;5036551;28;20050;-93
2023/12/29 14:15:41;;;;;;;1.85;0.60;;;;;;;;;;5057663;28;20146;-90
2023/12/29 14:18:27;;;;;;;1.95;0.80;;;;;;;;;;5031932;28;20057;-92
2023/12/29 14:21:00;;;;;;;1.42;0.60;;;;;;;;;;5039368;28;20046;-91
2023/12/29 14:23:28;;;;;;;0.85;0.70;;;;;;;;;;5061928;28;20057;-88
2023/12/29 14:26:02;;;;;;;1.00;0.90;;;;;;;;;;5046831;28;20071;-90
2023/12/29 14:28:30;;;;;;;2.45;1.02;;;;;;;;;;5034442;28;20053;-91
2023/12/29 14:31:03;;;;;;;3.15;0.90;;;;;;;;;;5054144;28;20053;-90
2023/12/29 14:33:30;;;;;;;;;;;;;;;;;;5061580;28;20449;-91
2023/12/29 14:35:58;;;;;;;1.02;0.60;;;;;;;;;;5047133;28;19920;-90
2023/12/29 14:38:25;;;;;;;0.90;0.90;;;;;;;;;;5061535;28;20105;-91
2023/12/29 14:40:52;;;;;;;4.10;0.77;;;;;;;;;;5062280;28;20057;-90
2023/12/29 14:43:19;;;;;;;1.58;0.63;;;;;;;;;;5040263;28;20564;-88
2023/12/29 14:45:47;;;;;;;3.90;1.13;;;;;;;;;;5047744;28;20429;-92
2023/12/29 14:48:14;;;;;;;0.85;0.80;;;;;;;;;;5038631;28;20076;-90
2023/12/29 14:50:45;;;;;;;0.90;0.60;;;;;;;;;;5059593;28;20049;-90
2023/12/29 14:53:13;;;;;;;1.20;0.80;;;;;;;;;;5059000;28;20148;-90